sensor_id;sensor_type;location;lat;lon;timestamp;pressure;altitude;pressure_sealevel;temperature;humidity
78144;BME280;67394;52.522;13.622;2023-07-16T00:00:17;100102.41;;;20.93;96.73
78144;BME280;67394;52.522;13.622;2023-07-16T00:02:43;100102.56;;;20.90;96.64
78144;BME280;67394;52.522;13.622;2023-07-16T00:05:10;100117.19;;;20.92;95.99
78144;BME280;67394;52.522;13.622;2023-07-16T00:07:36;100118.19;;;20.90;96.46
78144;BME280;67394;52.522;13.622;2023-07-16T00:10:03;100111.22;;;20.90;95.55
78144;BME280;67394;52.522;13.622;2023-07-16T00:12:29;100120.88;;;20.88;95.51
78144;BME280;67394;52.522;13.622;2023-07-16T00:14:56;100117.44;;;20.88;94.82
78144;BME280;67394;52.522;13.622;2023-07-16T00:17:22;100121.06;;;20.85;95.30
78144;BME280;67394;52.522;13.622;2023-07-16T00:19:49;100127.25;;;20.82;95.10
78144;BME280;67394;52.522;13.622;2023-07-16T00:22:15;100130.84;;;20.80;95.46
78144;BME280;67394;52.522;13.622;2023-07-16T00:24:42;100120.69;;;20.75;95.91
78144;BME280;67394;52.522;13.622;2023-07-16T00:27:08;100124.13;;;20.76;95.63
78144;BME280;67394;52.522;13.622;2023-07-16T00:29:35;100139.00;;;20.74;94.75
78144;BME280;67394;52.522;13.622;2023-07-16T00:32:01;100135.63;;;20.72;94.93
78144;BME280;67394;52.522;13.622;2023-07-16T00:34:28;100143.59;;;20.69;94.65
78144;BME280;67394;52.522;13.622;2023-07-16T00:36:54;100150.56;;;20.68;94.61
78144;BME280;67394;52.522;13.622;2023-07-16T00:39:20;100149.41;;;20.74;94.33
78144;BME280;67394;52.522;13.622;2023-07-16T00:41:47;100144.50;;;20.68;94.65
78144;BME280;67394;52.522;13.622;2023-07-16T00:44:13;100165.41;;;20.66;95.47
78144;BME280;67394;52.522;13.622;2023-07-16T00:46:40;100176.84;;;20.64;95.33
78144;BME280;67394;52.522;13.622;2023-07-16T00:49:06;100174.25;;;20.64;95.44
78144;BME280;67394;52.522;13.622;2023-07-16T00:51:33;100188.97;;;20.65;95.39
78144;BME280;67394;52.522;13.622;2023-07-16T00:54:01;100187.09;;;20.67;95.75
78144;BME280;67394;52.522;13.622;2023-07-16T00:56:27;100188.31;;;20.60;96.11
78144;BME280;67394;52.522;13.622;2023-07-16T00:58:54;100204.72;;;20.62;96.26
78144;BME280;67394;52.522;13.622;2023-07-16T01:01:21;100208.38;;;20.58;96.32
78144;BME280;67394;52.522;13.622;2023-07-16T01:03:47;100222.44;;;20.55;96.66
78144;BME280;67394;52.522;13.622;2023-07-16T01:06:18;100244.84;;;20.58;96.86
78144;BME280;67394;52.522;13.622;2023-07-16T01:09:20;100257.88;;;20.58;97.14
78144;BME280;67394;52.522;13.622;2023-07-16T01:11:48;100295.34;;;20.55;97.38
78144;BME280;67394;52.522;13.622;2023-07-16T01:14:17;100319.72;;;20.54;97.38
78144;BME280;67394;52.522;13.622;2023-07-16T01:16:43;100348.50;;;20.51;97.56
78144;BME280;67394;52.522;13.622;2023-07-16T01:19:10;100395.72;;;20.43;98.17
78144;BME280;67394;52.522;13.622;2023-07-16T01:30:32;100421.25;;;20.35;98.58
78144;BME280;67394;52.522;13.622;2023-07-16T01:33:01;100423.31;;;20.27;99.39
78144;BME280;67394;52.522;13.622;2023-07-16T01:35:29;100442.25;;;20.31;97.99
78144;BME280;67394;52.522;13.622;2023-07-16T01:37:56;100441.28;;;20.33;97.97
78144;BME280;67394;52.522;13.622;2023-07-16T01:40:22;100436.94;;;20.34;97.07
78144;BME280;67394;52.522;13.622;2023-07-16T01:42:49;100442.94;;;20.34;96.60
78144;BME280;67394;52.522;13.622;2023-07-16T01:45:15;100421.50;;;20.29;97.02
78144;BME280;67394;52.522;13.622;2023-07-16T01:50:33;100403.00;;;20.35;96.44
78144;BME280;67394;52.522;13.622;2023-07-16T01:53:00;100388.97;;;20.39;95.31
78144;BME280;67394;52.522;13.622;2023-07-16T01:55:27;100371.56;;;20.40;95.30
78144;BME280;67394;52.522;13.622;2023-07-16T01:57:53;100370.72;;;20.39;95.53
78144;BME280;67394;52.522;13.622;2023-07-16T02:00:20;100389.88;;;20.38;95.65
78144;BME280;67394;52.522;13.622;2023-07-16T02:02:46;100419.47;;;20.36;95.68
78144;BME280;67394;52.522;13.622;2023-07-16T02:05:14;100418.56;;;20.37;95.91
78144;BME280;67394;52.522;13.622;2023-07-16T02:07:41;100425.59;;;20.35;95.90
78144;BME280;67394;52.522;13.622;2023-07-16T02:10:07;100425.59;;;20.35;95.67
78144;BME280;67394;52.522;13.622;2023-07-16T02:12:34;100417.78;;;20.35;94.74
78144;BME280;67394;52.522;13.622;2023-07-16T02:15:00;100402.09;;;20.36;95.07
78144;BME280;67394;52.522;13.622;2023-07-16T02:17:27;100406.34;;;20.39;95.20
78144;BME280;67394;52.522;13.622;2023-07-16T02:19:53;100403.78;;;20.37;93.98
78144;BME280;67394;52.522;13.622;2023-07-16T02:22:20;100401.91;;;20.41;93.44
78144;BME280;67394;52.522;13.622;2023-07-16T02:24:46;100420.69;;;20.48;93.66
78144;BME280;67394;52.522;13.622;2023-07-16T02:27:13;100416.47;;;20.45;92.68
78144;BME280;67394;52.522;13.622;2023-07-16T02:29:39;100419.78;;;20.49;93.90
78144;BME280;67394;52.522;13.622;2023-07-16T02:32:06;100437.16;;;20.48;92.77
78144;BME280;67394;52.522;13.622;2023-07-16T02:34:32;100434.69;;;20.45;93.58
78144;BME280;67394;52.522;13.622;2023-07-16T02:36:59;100442.72;;;20.40;94.59
78144;BME280;67394;52.522;13.622;2023-07-16T02:39:25;100450.66;;;20.37;94.15
78144;BME280;67394;52.522;13.622;2023-07-16T02:41:52;100463.78;;;20.34;94.81
78144;BME280;67394;52.522;13.622;2023-07-16T02:44:18;100460.53;;;20.29;96.02
78144;BME280;67394;52.522;13.622;2023-07-16T02:46:44;100452.91;;;20.25;94.75
78144;BME280;67394;52.522;13.622;2023-07-16T02:49:11;100433.22;;;20.19;96.64
78144;BME280;67394;52.522;13.622;2023-07-16T02:51:37;100436.75;;;20.18;95.59
78144;BME280;67394;52.522;13.622;2023-07-16T02:54:04;100447.28;;;20.15;96.38
78144;BME280;67394;52.522;13.622;2023-07-16T02:56:30;100432.00;;;20.07;97.44
78144;BME280;67394;52.522;13.622;2023-07-16T02:58:57;100445.72;;;20.11;97.56
78144;BME280;67394;52.522;13.622;2023-07-16T03:01:23;100457.34;;;20.02;97.77
78144;BME280;67394;52.522;13.622;2023-07-16T03:03:50;100468.75;;;20.00;98.86
78144;BME280;67394;52.522;13.622;2023-07-16T03:06:16;100472.28;;;19.99;98.54
78144;BME280;67394;52.522;13.622;2023-07-16T03:08:47;100465.50;;;19.95;98.83
78144;BME280;67394;52.522;13.622;2023-07-16T03:11:14;100469.91;;;19.93;99.36
78144;BME280;67394;52.522;13.622;2023-07-16T03:13:40;100470.97;;;19.89;99.34
78144;BME280;67394;52.522;13.622;2023-07-16T03:16:07;100459.66;;;19.90;99.65
78144;BME280;67394;52.522;13.622;2023-07-16T03:18:34;100448.59;;;19.85;99.59
78144;BME280;67394;52.522;13.622;2023-07-16T03:21:01;100438.19;;;19.85;99.69
78144;BME280;67394;52.522;13.622;2023-07-16T03:23:27;100436.47;;;19.84;99.86
78144;BME280;67394;52.522;13.622;2023-07-16T03:25:53;100415.66;;;19.84;99.94
78144;BME280;67394;52.522;13.622;2023-07-16T03:28:20;100410.47;;;19.84;99.25
78144;BME280;67394;52.522;13.622;2023-07-16T03:30:47;100413.13;;;19.82;99.96
78144;BME280;67394;52.522;13.622;2023-07-16T03:33:14;100406.09;;;19.84;99.95
78144;BME280;67394;52.522;13.622;2023-07-16T03:35:44;100396.66;;;19.82;100.00
78144;BME280;67394;52.522;13.622;2023-07-16T03:38:11;100394.06;;;19.82;100.00
78144;BME280;67394;52.522;13.622;2023-07-16T03:40:38;100385.50;;;19.80;100.00
78144;BME280;67394;52.522;13.622;2023-07-16T03:43:04;100389.06;;;19.77;100.00
78144;BME280;67394;52.522;13.622;2023-07-16T03:45:31;100399.59;;;19.74;100.00
78144;BME280;67394;52.522;13.622;2023-07-16T03:47:57;100400.56;;;19.71;100.00
78144;BME280;67394;52.522;13.622;2023-07-16T03:50:24;100412.81;;;19.69;100.00
78144;BME280;67394;52.522;13.622;2023-07-16T03:52:50;100408.59;;;19.67;100.00
78144;BME280;67394;52.522;13.622;2023-07-16T03:55:17;100371.28;;;19.68;100.00
78144;BME280;67394;52.522;13.622;2023-07-16T03:57:43;100380.88;;;19.66;100.00
78144;BME280;67394;52.522;13.622;2023-07-16T04:00:10;100380.88;;;19.66;100.00
78144;BME280;67394;52.522;13.622;2023-07-16T04:02:37;100388.75;;;19.64;100.00
78144;BME280;67394;52.522;13.622;2023-07-16T04:05:03;100404.47;;;19.61;100.00
78144;BME280;67394;52.522;13.622;2023-07-16T04:07:30;100403.63;;;19.61;100.00
78144;BME280;67394;52.522;13.622;2023-07-16T04:09:56;100420.22;;;19.58;100.00
78144;BME280;67394;52.522;13.622;2023-07-16T04:12:23;100425.44;;;19.58;100.00
78144;BME280;67394;52.522;13.622;2023-07-16T04:14:55;100422.88;;;19.57;100.00
78144;BME280;67394;52.522;13.622;2023-07-16T04:17:22;100427.13;;;19.59;100.00
78144;BME280;67394;52.522;13.622;2023-07-16T04:19:48;100426.28;;;19.59;100.00
78144;BME280;67394;52.522;13.622;2023-07-16T04:22:15;100429.03;;;19.54;100.00
78144;BME280;67394;52.522;13.622;2023-07-16T04:24:42;100433.28;;;19.57;100.00
78144;BME280;67394;52.522;13.622;2023-07-16T04:27:09;100428.03;;;19.58;100.00
78144;BME280;67394;52.522;13.622;2023-07-16T04:29:35;100435.94;;;19.55;100.00
78144;BME280;67394;52.522;13.622;2023-07-16T04:32:02;100441.03;;;19.58;100.00
78144;BME280;67394;52.522;13.622;2023-07-16T04:34:28;100446.03;;;19.63;100.00
78144;BME280;67394;52.522;13.622;2023-07-16T04:36:55;100450.19;;;19.67;100.00
78144;BME280;67394;52.522;13.622;2023-07-16T04:39:21;100446.69;;;19.68;100.00
78144;BME280;67394;52.522;13.622;2023-07-16T04:41:48;100453.72;;;19.66;100.00
78144;BME280;67394;52.522;13.622;2023-07-16T04:44:14;100462.34;;;19.66;100.00
78144;BME280;67394;52.522;13.622;2023-07-16T04:46:40;100463.38;;;19.62;100.00
78144;BME280;67394;52.522;13.622;2023-07-16T04:49:07;100465.19;;;19.60;100.00
78144;BME280;67394;52.522;13.622;2023-07-16T04:51:33;100480.78;;;19.60;100.00
78144;BME280;67394;52.522;13.622;2023-07-16T04:54:00;100475.53;;;19.62;100.00
78144;BME280;67394;52.522;13.622;2023-07-16T04:56:26;100472.19;;;19.60;100.00
78144;BME280;67394;52.522;13.622;2023-07-16T04:58:53;100484.25;;;19.61;100.00
78144;BME280;67394;52.522;13.622;2023-07-16T05:01:19;100489.53;;;19.59;100.00
78144;BME280;67394;52.522;13.622;2023-07-16T05:03:46;100494.00;;;19.56;100.00
78144;BME280;67394;52.522;13.622;2023-07-16T05:06:12;100500.84;;;19.58;100.00
78144;BME280;67394;52.522;13.622;2023-07-16T05:08:39;100483.41;;;19.60;100.00
78144;BME280;67394;52.522;13.622;2023-07-16T05:11:06;100491.88;;;19.65;100.00
78144;BME280;67394;52.522;13.622;2023-07-16T05:13:32;100499.41;;;19.71;100.00
78144;BME280;67394;52.522;13.622;2023-07-16T05:15:59;100529.72;;;19.72;100.00
78144;BME280;67394;52.522;13.622;2023-07-16T05:18:25;100535.91;;;19.70;100.00
78144;BME280;67394;52.522;13.622;2023-07-16T05:20:52;100539.22;;;19.73;100.00
78144;BME280;67394;52.522;13.622;2023-07-16T05:23:18;100531.31;;;19.77;100.00
78144;BME280;67394;52.522;13.622;2023-07-16T05:25:49;100528.66;;;19.78;100.00
78144;BME280;67394;52.522;13.622;2023-07-16T05:28:16;100528.44;;;19.83;100.00
78144;BME280;67394;52.522;13.622;2023-07-16T05:30:43;100521.31;;;19.88;100.00
78144;BME280;67394;52.522;13.622;2023-07-16T05:33:10;100513.06;;;19.98;100.00
78144;BME280;67394;52.522;13.622;2023-07-16T05:35:38;100519.00;;;20.02;100.00
78144;BME280;67394;52.522;13.622;2023-07-16T05:38:05;100516.25;;;20.05;100.00
78144;BME280;67394;52.522;13.622;2023-07-16T05:40:31;100522.69;;;20.17;100.00
78144;BME280;67394;52.522;13.622;2023-07-16T05:42:57;100519.59;;;20.29;100.00
78144;BME280;67394;52.522;13.622;2023-07-16T05:45:24;100519.03;;;20.42;99.83
78144;BME280;67394;52.522;13.622;2023-07-16T05:47:50;100529.50;;;20.61;98.96
78144;BME280;67394;52.522;13.622;2023-07-16T05:50:17;100529.31;;;20.66;98.33
78144;BME280;67394;52.522;13.622;2023-07-16T05:52:43;100540.63;;;20.65;97.91
78144;BME280;67394;52.522;13.622;2023-07-16T05:55:10;100541.72;;;20.59;98.05
78144;BME280;67394;52.522;13.622;2023-07-16T05:57:36;100549.47;;;20.61;98.42
78144;BME280;67394;52.522;13.622;2023-07-16T06:00:03;100534.34;;;20.69;98.30
78144;BME280;67394;52.522;13.622;2023-07-16T06:02:30;100531.69;;;20.70;98.40
78144;BME280;67394;52.522;13.622;2023-07-16T06:04:57;100551.69;;;20.70;97.70
78144;BME280;67394;52.522;13.622;2023-07-16T06:07:23;100549.56;;;20.78;97.54
78144;BME280;67394;52.522;13.622;2023-07-16T06:09:50;100547.75;;;20.80;96.76
78144;BME280;67394;52.522;13.622;2023-07-16T06:12:18;100548.34;;;20.87;96.08
78144;BME280;67394;52.522;13.622;2023-07-16T06:14:45;100547.94;;;20.96;95.53
78144;BME280;67394;52.522;13.622;2023-07-16T06:17:11;100536.22;;;21.04;94.55
78144;BME280;67394;52.522;13.622;2023-07-16T06:19:38;100544.47;;;21.14;95.42
78144;BME280;67394;52.522;13.622;2023-07-16T06:22:04;100537.88;;;21.07;93.74
78144;BME280;67394;52.522;13.622;2023-07-16T06:24:31;100545.31;;;21.14;94.07
78144;BME280;67394;52.522;13.622;2023-07-16T06:26:58;100544.88;;;21.25;92.92
78144;BME280;67394;52.522;13.622;2023-07-16T06:29:25;100538.25;;;21.37;93.61
78144;BME280;67394;52.522;13.622;2023-07-16T06:31:56;100557.28;;;21.39;92.52
78144;BME280;67394;52.522;13.622;2023-07-16T06:34:24;100545.59;;;21.29;91.69
78144;BME280;67394;52.522;13.622;2023-07-16T06:36:51;100552.47;;;21.30;91.91
78144;BME280;67394;52.522;13.622;2023-07-16T06:39:18;100548.53;;;21.40;91.31
78144;BME280;67394;52.522;13.622;2023-07-16T06:41:44;100554.16;;;21.49;91.87
78144;BME280;67394;52.522;13.622;2023-07-16T06:44:11;100548.44;;;21.60;91.79
78144;BME280;67394;52.522;13.622;2023-07-16T06:46:37;100549.69;;;21.70;89.72
78144;BME280;67394;52.522;13.622;2023-07-16T06:49:06;100555.31;;;21.80;89.35
78144;BME280;67394;52.522;13.622;2023-07-16T06:51:32;100559.38;;;21.85;87.56
78144;BME280;67394;52.522;13.622;2023-07-16T06:53:59;100565.16;;;21.92;87.20
78144;BME280;67394;52.522;13.622;2023-07-16T06:56:26;100574.66;;;21.93;86.45
78144;BME280;67394;52.522;13.622;2023-07-16T06:58:53;100565.72;;;21.99;86.01
78144;BME280;67394;52.522;13.622;2023-07-16T07:01:19;100563.56;;;22.07;85.59
78144;BME280;67394;52.522;13.622;2023-07-16T07:03:46;100573.56;;;22.16;86.87
78144;BME280;67394;52.522;13.622;2023-07-16T07:06:12;100571.56;;;22.21;85.35
78144;BME280;67394;52.522;13.622;2023-07-16T07:08:39;100566.66;;;22.32;85.08
78144;BME280;67394;52.522;13.622;2023-07-16T07:11:06;100566.19;;;22.41;83.86
78144;BME280;67394;52.522;13.622;2023-07-16T07:13:33;100574.31;;;22.52;84.66
78144;BME280;67394;52.522;13.622;2023-07-16T07:15:59;100579.28;;;22.74;84.52
78144;BME280;67394;52.522;13.622;2023-07-16T07:18:26;100588.00;;;22.75;80.92
78144;BME280;67394;52.522;13.622;2023-07-16T07:20:52;100580.03;;;22.78;80.97
78144;BME280;67394;52.522;13.622;2023-07-16T07:23:19;100586.63;;;22.85;81.27
78144;BME280;67394;52.522;13.622;2023-07-16T07:25:49;100585.00;;;22.82;80.81
78144;BME280;67394;52.522;13.622;2023-07-16T07:28:16;100583.66;;;22.91;81.68
78144;BME280;67394;52.522;13.622;2023-07-16T07:30:44;100592.06;;;22.97;81.39
78144;BME280;67394;52.522;13.622;2023-07-16T07:33:13;100586.25;;;23.08;78.99
78144;BME280;67394;52.522;13.622;2023-07-16T07:35:39;100588.28;;;23.19;78.79
78144;BME280;67394;52.522;13.622;2023-07-16T07:38:06;100592.63;;;23.03;77.47
78144;BME280;67394;52.522;13.622;2023-07-16T07:40:32;100593.16;;;23.09;77.43
78144;BME280;67394;52.522;13.622;2023-07-16T07:42:59;100594.81;;;22.94;78.01
78144;BME280;67394;52.522;13.622;2023-07-16T07:45:26;100599.63;;;23.02;78.17
78144;BME280;67394;52.522;13.622;2023-07-16T07:47:52;100608.72;;;23.28;76.58
78144;BME280;67394;52.522;13.622;2023-07-16T07:50:19;100602.78;;;23.09;76.46
78144;BME280;67394;52.522;13.622;2023-07-16T07:52:45;100607.19;;;22.91;76.92
78144;BME280;67394;52.522;13.622;2023-07-16T07:55:12;100606.13;;;23.11;76.46
78144;BME280;67394;52.522;13.622;2023-07-16T07:57:39;100603.72;;;23.23;74.78
78144;BME280;67394;52.522;13.622;2023-07-16T08:00:06;100604.59;;;23.40;74.65
78144;BME280;67394;52.522;13.622;2023-07-16T08:02:32;100607.41;;;23.52;73.99
78144;BME280;67394;52.522;13.622;2023-07-16T08:04:59;100613.09;;;23.60;73.29
78144;BME280;67394;52.522;13.622;2023-07-16T08:07:30;100606.25;;;23.58;73.54
78144;BME280;67394;52.522;13.622;2023-07-16T08:09:57;100613.66;;;23.81;73.35
78144;BME280;67394;52.522;13.622;2023-07-16T08:12:24;100606.63;;;23.97;71.57
78144;BME280;67394;52.522;13.622;2023-07-16T08:14:50;100613.72;;;23.95;72.46
78144;BME280;67394;52.522;13.622;2023-07-16T08:17:17;100622.09;;;23.86;72.16
78144;BME280;67394;52.522;13.622;2023-07-16T08:19:48;100618.25;;;23.62;72.34
78144;BME280;67394;52.522;13.622;2023-07-16T08:22:14;100624.63;;;23.56;69.88
78144;BME280;67394;52.522;13.622;2023-07-16T08:24:41;100624.59;;;23.41;70.29
78144;BME280;67394;52.522;13.622;2023-07-16T08:27:08;100634.22;;;23.40;69.41
78144;BME280;67394;52.522;13.622;2023-07-16T08:29:36;100634.53;;;23.67;69.45
78144;BME280;67394;52.522;13.622;2023-07-16T08:32:03;100626.00;;;23.79;70.42
78144;BME280;67394;52.522;13.622;2023-07-16T08:34:30;100637.63;;;23.73;69.73
78144;BME280;67394;52.522;13.622;2023-07-16T08:36:56;100629.03;;;23.56;68.81
78144;BME280;67394;52.522;13.622;2023-07-16T08:39:23;100634.44;;;23.68;67.49
78144;BME280;67394;52.522;13.622;2023-07-16T08:41:52;100638.50;;;23.90;70.30
78144;BME280;67394;52.522;13.622;2023-07-16T08:44:20;100633.19;;;24.37;69.39
78144;BME280;67394;52.522;13.622;2023-07-16T08:46:47;100639.91;;;24.71;66.86
78144;BME280;67394;52.522;13.622;2023-07-16T08:49:17;100657.19;;;24.45;64.09
78144;BME280;67394;52.522;13.622;2023-07-16T08:51:46;100662.63;;;24.26;62.64
78144;BME280;67394;52.522;13.622;2023-07-16T08:54:14;100665.31;;;24.09;63.41
78144;BME280;67394;52.522;13.622;2023-07-16T08:56:42;100659.00;;;23.97;59.35
78144;BME280;67394;52.522;13.622;2023-07-16T08:59:09;100656.63;;;24.08;60.57
78144;BME280;67394;52.522;13.622;2023-07-16T09:01:39;100659.19;;;24.26;61.48
78144;BME280;67394;52.522;13.622;2023-07-16T09:04:06;100664.78;;;24.50;61.95
78144;BME280;67394;52.522;13.622;2023-07-16T09:06:32;100655.00;;;24.67;60.43
78144;BME280;67394;52.522;13.622;2023-07-16T09:08:59;100653.16;;;24.84;59.83
78144;BME280;67394;52.522;13.622;2023-07-16T09:11:25;100662.22;;;25.08;58.86
78144;BME280;67394;52.522;13.622;2023-07-16T09:13:52;100659.59;;;25.08;59.35
78144;BME280;67394;52.522;13.622;2023-07-16T09:16:20;100664.56;;;25.41;57.28
78144;BME280;67394;52.522;13.622;2023-07-16T09:18:47;100667.81;;;25.59;56.63
78144;BME280;67394;52.522;13.622;2023-07-16T09:21:15;100659.38;;;25.68;54.95
78144;BME280;67394;52.522;13.622;2023-07-16T09:23:42;100677.41;;;26.01;56.17
78144;BME280;67394;52.522;13.622;2023-07-16T09:26:09;100670.06;;;25.50;53.44
78144;BME280;67394;52.522;13.622;2023-07-16T09:28:36;100679.81;;;25.34;53.23
78144;BME280;67394;52.522;13.622;2023-07-16T09:31:03;100672.50;;;25.53;53.90
78144;BME280;67394;52.522;13.622;2023-07-16T09:33:31;100678.88;;;25.35;53.72
78144;BME280;67394;52.522;13.622;2023-07-16T09:35:58;100681.34;;;25.10;54.61
78144;BME280;67394;52.522;13.622;2023-07-16T09:38:27;100683.28;;;25.06;55.05
78144;BME280;67394;52.522;13.622;2023-07-16T09:40:56;100676.09;;;25.10;56.89
78144;BME280;67394;52.522;13.622;2023-07-16T09:43:23;100675.78;;;25.14;56.88
78144;BME280;67394;52.522;13.622;2023-07-16T09:45:50;100671.16;;;24.90;56.01
78144;BME280;67394;52.522;13.622;2023-07-16T09:48:17;100669.78;;;24.98;54.75
78144;BME280;67394;52.522;13.622;2023-07-16T09:50:50;100672.69;;;25.36;55.82
78144;BME280;67394;52.522;13.622;2023-07-16T09:53:19;100672.59;;;25.24;54.64
78144;BME280;67394;52.522;13.622;2023-07-16T09:55:48;100676.94;;;25.10;55.06
78144;BME280;67394;52.522;13.622;2023-07-16T09:58:18;100682.00;;;24.84;54.14
78144;BME280;67394;52.522;13.622;2023-07-16T10:00:45;100680.09;;;24.71;55.65
78144;BME280;67394;52.522;13.622;2023-07-16T10:03:12;100689.72;;;24.71;55.71
78144;BME280;67394;52.522;13.622;2023-07-16T10:05:41;100687.88;;;24.73;55.93
78144;BME280;67394;52.522;13.622;2023-07-16T10:08:20;100695.13;;;24.84;56.12
78144;BME280;67394;52.522;13.622;2023-07-16T10:10:56;100687.88;;;25.17;56.35
78144;BME280;67394;52.522;13.622;2023-07-16T10:13:23;100691.63;;;25.27;55.70
78144;BME280;67394;52.522;13.622;2023-07-16T10:15:56;100690.88;;;25.11;55.08
78144;BME280;67394;52.522;13.622;2023-07-16T10:20:51;100693.75;;;26.06;52.44
78144;BME280;67394;52.522;13.622;2023-07-16T10:23:18;100684.50;;;26.40;50.25
78144;BME280;67394;52.522;13.622;2023-07-16T10:25:59;100682.88;;;26.24;49.38
78144;BME280;67394;52.522;13.622;2023-07-16T10:28:26;100682.88;;;26.24;51.24
78144;BME280;67394;52.522;13.622;2023-07-16T10:30:52;100675.78;;;26.39;51.81
78144;BME280;67394;52.522;13.622;2023-07-16T10:33:19;100683.19;;;26.47;50.03
78144;BME280;67394;52.522;13.622;2023-07-16T10:35:45;100699.25;;;26.15;51.49
78144;BME280;67394;52.522;13.622;2023-07-16T10:38:12;100701.00;;;25.45;51.95
78144;BME280;67394;52.522;13.622;2023-07-16T10:40:44;100688.72;;;25.17;51.71
78144;BME280;67394;52.522;13.622;2023-07-16T10:43:11;100692.03;;;25.64;52.46
78144;BME280;67394;52.522;13.622;2023-07-16T10:45:38;100698.94;;;25.79;53.48
78144;BME280;67394;52.522;13.622;2023-07-16T10:48:05;100703.97;;;25.96;52.07
78144;BME280;67394;52.522;13.622;2023-07-16T10:50:33;100708.78;;;26.31;50.41
78144;BME280;67394;52.522;13.622;2023-07-16T10:53:00;100694.19;;;26.79;50.58
78144;BME280;67394;52.522;13.622;2023-07-16T10:55:29;100710.34;;;27.00;49.03
78144;BME280;67394;52.522;13.622;2023-07-16T10:57:56;100697.19;;;27.00;47.36
78144;BME280;67394;52.522;13.622;2023-07-16T11:00:23;100704.75;;;27.42;48.67
78144;BME280;67394;52.522;13.622;2023-07-16T11:02:50;100707.38;;;27.55;48.14
78144;BME280;67394;52.522;13.622;2023-07-16T11:05:18;100701.34;;;27.78;46.95
78144;BME280;67394;52.522;13.622;2023-07-16T11:07:46;100708.22;;;28.04;46.58
78144;BME280;67394;52.522;13.622;2023-07-16T11:10:19;100702.00;;;28.53;45.51
78144;BME280;67394;52.522;13.622;2023-07-16T11:12:51;100705.84;;;28.25;45.04
78144;BME280;67394;52.522;13.622;2023-07-16T11:15:18;100691.81;;;28.49;44.67
78144;BME280;67394;52.522;13.622;2023-07-16T11:17:48;100700.56;;;28.49;43.86
78144;BME280;67394;52.522;13.622;2023-07-16T11:20:15;100696.53;;;28.91;45.54
78144;BME280;67394;52.522;13.622;2023-07-16T11:22:42;100696.41;;;29.04;43.27
78144;BME280;67394;52.522;13.622;2023-07-16T11:25:12;100709.59;;;29.04;43.51
78144;BME280;67394;52.522;13.622;2023-07-16T11:27:41;100702.88;;;28.89;42.84
78144;BME280;67394;52.522;13.622;2023-07-16T11:30:08;100700.03;;;28.68;44.50
78144;BME280;67394;52.522;13.622;2023-07-16T11:32:37;100714.72;;;28.12;45.21
78144;BME280;67394;52.522;13.622;2023-07-16T11:35:11;100712.13;;;28.35;45.66
78144;BME280;67394;52.522;13.622;2023-07-16T11:37:41;100700.94;;;27.72;44.38
78144;BME280;67394;52.522;13.622;2023-07-16T11:40:10;100700.34;;;27.30;46.00
78144;BME280;67394;52.522;13.622;2023-07-16T11:42:38;100701.81;;;27.21;46.59
78144;BME280;67394;52.522;13.622;2023-07-16T11:45:15;100701.69;;;27.48;47.13
78144;BME280;67394;52.522;13.622;2023-07-16T11:47:43;100710.09;;;27.66;47.93
78144;BME280;67394;52.522;13.622;2023-07-16T11:50:10;100712.56;;;27.31;46.27
78144;BME280;67394;52.522;13.622;2023-07-16T11:52:38;100702.72;;;27.84;45.77
78144;BME280;67394;52.522;13.622;2023-07-16T11:55:05;100707.66;;;28.12;45.40
78144;BME280;67394;52.522;13.622;2023-07-16T11:57:32;100704.25;;;28.47;45.89
78144;BME280;67394;52.522;13.622;2023-07-16T11:59:59;100697.19;;;27.87;46.74
78144;BME280;67394;52.522;13.622;2023-07-16T12:02:26;100700.94;;;27.72;45.12
78144;BME280;67394;52.522;13.622;2023-07-16T12:04:54;100709.59;;;27.36;46.65
78144;BME280;67394;52.522;13.622;2023-07-16T12:07:37;100705.50;;;27.19;45.20
78144;BME280;67394;52.522;13.622;2023-07-16T12:10:06;100712.13;;;27.50;46.71
78144;BME280;67394;52.522;13.622;2023-07-16T12:12:33;100707.28;;;28.05;46.37
78144;BME280;67394;52.522;13.622;2023-07-16T12:15:00;100710.63;;;28.08;45.53
78144;BME280;67394;52.522;13.622;2023-07-16T12:17:27;100707.28;;;28.29;44.08
78144;BME280;67394;52.522;13.622;2023-07-16T12:19:54;100702.50;;;28.58;46.18
78144;BME280;67394;52.522;13.622;2023-07-16T12:22:23;100702.19;;;29.31;44.51
78144;BME280;67394;52.522;13.622;2023-07-16T12:24:51;100700.16;;;29.24;39.29
78144;BME280;67394;52.522;13.622;2023-07-16T12:27:18;100703.44;;;29.49;39.58
78144;BME280;67394;52.522;13.622;2023-07-16T12:29:45;100702.88;;;29.89;41.55
78144;BME280;67394;52.522;13.622;2023-07-16T12:32:13;100704.34;;;29.93;38.23
78144;BME280;67394;52.522;13.622;2023-07-16T12:34:40;100701.34;;;29.87;35.02
78144;BME280;67394;52.522;13.622;2023-07-16T12:37:06;100706.06;;;30.26;34.64
78144;BME280;67394;52.522;13.622;2023-07-16T12:39:33;100703.44;;;29.49;35.13
78144;BME280;67394;52.522;13.622;2023-07-16T12:42:00;100699.16;;;28.91;35.93
78144;BME280;67394;52.522;13.622;2023-07-16T12:44:27;100706.72;;;28.96;36.86
78144;BME280;67394;52.522;13.622;2023-07-16T12:46:53;100705.44;;;29.24;34.89
78144;BME280;67394;52.522;13.622;2023-07-16T12:49:20;100705.34;;;29.59;33.41
78144;BME280;67394;52.522;13.622;2023-07-16T12:51:46;100712.78;;;29.87;33.45